sensor_id;sensor_type;location;lat;lon;timestamp;pressure;altitude;pressure_sealevel;temperature;humidity
10167;BME280;62970;53.130;8.244;2023-05-03T00:00:49;102962.38;;;7.07;48.92
10167;BME280;62970;53.130;8.244;2023-05-03T00:03:18;102956.31;;;7.06;49.07
10167;BME280;62970;53.130;8.244;2023-05-03T00:05:49;102954.56;;;7.05;49.14
10167;BME280;62970;53.130;8.244;2023-05-03T00:08:18;102946.72;;;7.04;49.13
10167;BME280;62970;53.130;8.244;2023-05-03T00:10:48;102948.44;;;7.03;49.35
10167;BME280;62970;53.130;8.244;2023-05-03T00:13:17;102944.09;;;7.02;49.01
10167;BME280;62970;53.130;8.244;2023-05-03T00:15:51;102946.59;;;6.99;49.59
10167;BME280;62970;53.130;8.244;2023-05-03T00:18:21;102955.28;;;6.99;49.46
10167;BME280;62970;53.130;8.244;2023-05-03T00:20:51;102949.22;;;6.99;49.76
10167;BME280;62970;53.130;8.244;2023-05-03T00:23:20;102948.31;;;6.98;49.26
10167;BME280;62970;53.130;8.244;2023-05-03T00:25:54;102956.16;;;7.00;49.39
10167;BME280;62970;53.130;8.244;2023-05-03T00:28:24;102959.59;;;6.99;49.41
10167;BME280;62970;53.130;8.244;2023-05-03T00:30:56;102957.00;;;6.99;49.90
10167;BME280;62970;53.130;8.244;2023-05-03T00:33:36;102949.25;;;7.00;49.68
10167;BME280;62970;53.130;8.244;2023-05-03T00:36:10;102951.84;;;7.00;50.02
10167;BME280;62970;53.130;8.244;2023-05-03T00:38:40;102946.69;;;7.02;50.10
10167;BME280;62970;53.130;8.244;2023-05-03T00:41:11;102956.22;;;7.03;49.87
10167;BME280;62970;53.130;8.244;2023-05-03T00:43:40;102954.50;;;7.04;50.01
10167;BME280;62970;53.130;8.244;2023-05-03T00:46:14;102951.88;;;7.02;49.54
10167;BME280;62970;53.130;8.244;2023-05-03T00:48:46;102957.91;;;7.01;49.76
10167;BME280;62970;53.130;8.244;2023-05-03T00:51:19;102963.97;;;7.02;49.61
10167;BME280;62970;53.130;8.244;2023-05-03T00:53:50;102963.09;;;7.01;49.58
10167;BME280;62970;53.130;8.244;2023-05-03T00:56:19;102960.50;;;7.01;49.86
10167;BME280;62970;53.130;8.244;2023-05-03T00:58:50;102957.03;;;7.00;49.78
10167;BME280;62970;53.130;8.244;2023-05-03T01:01:22;102963.00;;;6.98;49.79
10167;BME280;62970;53.130;8.244;2023-05-03T01:03:52;102963.91;;;6.98;49.78
10167;BME280;62970;53.130;8.244;2023-05-03T01:06:31;102962.13;;;6.97;49.90
10167;BME280;62970;53.130;8.244;2023-05-03T01:09:11;102957.78;;;6.96;50.00
10167;BME280;62970;53.130;8.244;2023-05-03T01:11:54;102957.78;;;6.96;49.93
10167;BME280;62970;53.130;8.244;2023-05-03T01:14:35;102956.03;;;6.95;49.84
10167;BME280;62970;53.130;8.244;2023-05-03T01:17:14;102949.97;;;6.95;49.86
10167;BME280;62970;53.130;8.244;2023-05-03T01:19:57;102953.44;;;6.95;49.82
10167;BME280;62970;53.130;8.244;2023-05-03T01:22:37;102965.53;;;6.95;49.50
10167;BME280;62970;53.130;8.244;2023-05-03T01:25:15;102965.53;;;6.95;49.53
10167;BME280;62970;53.130;8.244;2023-05-03T01:27:44;102960.34;;;6.95;49.97
10167;BME280;62970;53.130;8.244;2023-05-03T01:30:22;102969.84;;;6.94;49.95
10167;BME280;62970;53.130;8.244;2023-05-03T01:33:02;102968.91;;;6.92;49.75
10167;BME280;62970;53.130;8.244;2023-05-03T01:35:39;102958.50;;;6.91;49.38
10167;BME280;62970;53.130;8.244;2023-05-03T01:38:09;102961.97;;;6.91;49.72
10167;BME280;62970;53.130;8.244;2023-05-03T01:40:50;102968.00;;;6.90;49.76
10167;BME280;62970;53.130;8.244;2023-05-03T01:43:20;102968.84;;;6.89;49.82
10167;BME280;62970;53.130;8.244;2023-05-03T01:45:53;102977.47;;;6.88;49.73
10167;BME280;62970;53.130;8.244;2023-05-03T01:48:22;102970.53;;;6.87;49.55
10167;BME280;62970;53.130;8.244;2023-05-03T01:50:51;102970.47;;;6.86;49.59
10167;BME280;62970;53.130;8.244;2023-05-03T01:53:22;102969.59;;;6.85;49.79
10167;BME280;62970;53.130;8.244;2023-05-03T01:55:56;102966.09;;;6.83;50.02
10167;BME280;62970;53.130;8.244;2023-05-03T01:58:25;102965.22;;;6.83;50.04
10167;BME280;62970;53.130;8.244;2023-05-03T02:00:55;102966.09;;;6.83;49.86
10167;BME280;62970;53.130;8.244;2023-05-03T02:03:27;102977.28;;;6.82;49.74
10167;BME280;62970;53.130;8.244;2023-05-03T02:05:57;102973.00;;;6.83;49.53
10167;BME280;62970;53.130;8.244;2023-05-03T02:08:26;102965.22;;;6.83;49.81
10167;BME280;62970;53.130;8.244;2023-05-03T02:10:58;102975.53;;;6.81;49.83
10167;BME280;62970;53.130;8.244;2023-05-03T02:13:27;102979.91;;;6.82;49.59
10167;BME280;62970;53.130;8.244;2023-05-03T02:15:57;102983.38;;;6.83;50.06
10167;BME280;62970;53.130;8.244;2023-05-03T02:18:27;102979.91;;;6.82;49.63
10167;BME280;62970;53.130;8.244;2023-05-03T02:21:00;102989.38;;;6.82;49.81
10167;BME280;62970;53.130;8.244;2023-05-03T02:23:29;102980.78;;;6.83;49.89
10167;BME280;62970;53.130;8.244;2023-05-03T02:26:01;102987.63;;;6.81;50.06
10167;BME280;62970;53.130;8.244;2023-05-03T02:28:34;102995.41;;;6.81;49.93
10167;BME280;62970;53.130;8.244;2023-05-03T02:31:04;102996.25;;;6.80;49.84
10167;BME280;62970;53.130;8.244;2023-05-03T02:33:35;102984.97;;;6.78;49.90
10167;BME280;62970;53.130;8.244;2023-05-03T02:36:05;102991.84;;;6.77;49.89
10167;BME280;62970;53.130;8.244;2023-05-03T02:38:34;102985.78;;;6.77;50.01
10167;BME280;62970;53.130;8.244;2023-05-03T02:41:07;102990.97;;;6.77;49.62
10167;BME280;62970;53.130;8.244;2023-05-03T02:43:36;102989.22;;;6.76;49.63
10167;BME280;62970;53.130;8.244;2023-05-03T02:46:05;102988.34;;;6.75;49.95
10167;BME280;62970;53.130;8.244;2023-05-03T02:48:34;102987.47;;;6.75;49.65
10167;BME280;62970;53.130;8.244;2023-05-03T02:51:06;102984.88;;;6.75;49.88
10167;BME280;62970;53.130;8.244;2023-05-03T02:53:35;102978.81;;;6.74;50.10
10167;BME280;62970;53.130;8.244;2023-05-03T02:56:08;102982.25;;;6.73;49.97
10167;BME280;62970;53.130;8.244;2023-05-03T02:58:39;102984.84;;;6.73;50.37
10167;BME280;62970;53.130;8.244;2023-05-03T03:01:10;102977.00;;;6.72;50.03
10167;BME280;62970;53.130;8.244;2023-05-03T03:03:39;102983.03;;;6.71;50.40
10167;BME280;62970;53.130;8.244;2023-05-03T03:06:11;102970.88;;;6.68;50.08
10167;BME280;62970;53.130;8.244;2023-05-03T03:08:40;102977.69;;;6.64;50.40
10167;BME280;62970;53.130;8.244;2023-05-03T03:11:12;102978.44;;;6.60;50.22
10167;BME280;62970;53.130;8.244;2023-05-03T03:13:42;102968.72;;;6.53;50.38
10167;BME280;62970;53.130;8.244;2023-05-03T03:16:18;102974.59;;;6.46;50.18
10167;BME280;62970;53.130;8.244;2023-05-03T03:18:47;102975.28;;;6.41;50.21
10167;BME280;62970;53.130;8.244;2023-05-03T03:21:22;102977.66;;;6.33;50.62
10167;BME280;62970;53.130;8.244;2023-05-03T03:23:59;102978.28;;;6.24;50.49
10167;BME280;62970;53.130;8.244;2023-05-03T03:26:33;102979.81;;;6.18;50.53
10167;BME280;62970;53.130;8.244;2023-05-03T03:29:05;102980.59;;;6.15;50.85
10167;BME280;62970;53.130;8.244;2023-05-03T03:31:35;102978.75;;;6.11;51.12
10167;BME280;62970;53.130;8.244;2023-05-03T03:34:05;102968.31;;;6.08;51.25
10167;BME280;62970;53.130;8.244;2023-05-03T03:36:34;102974.31;;;6.07;51.34
10167;BME280;62970;53.130;8.244;2023-05-03T03:39:05;102968.16;;;6.03;51.59
10167;BME280;62970;53.130;8.244;2023-05-03T03:41:37;102962.06;;;6.01;51.70
10167;BME280;62970;53.130;8.244;2023-05-03T03:44:09;102964.50;;;5.97;51.21
10167;BME280;62970;53.130;8.244;2023-05-03T03:46:39;102960.00;;;5.90;51.73
10167;BME280;62970;53.130;8.244;2023-05-03T03:49:08;102961.50;;;5.83;51.21
10167;BME280;62970;53.130;8.244;2023-05-03T03:51:37;102970.72;;;5.74;51.88
10167;BME280;62970;53.130;8.244;2023-05-03T03:54:07;102967.75;;;5.61;51.52
10167;BME280;62970;53.130;8.244;2023-05-03T03:56:41;102961.44;;;5.53;51.77
10167;BME280;62970;53.130;8.244;2023-05-03T03:59:10;102965.53;;;5.47;52.24
10167;BME280;62970;53.130;8.244;2023-05-03T04:01:43;102959.41;;;5.43;52.24
10167;BME280;62970;53.130;8.244;2023-05-03T04:04:13;102966.28;;;5.43;52.34
10167;BME280;62970;53.130;8.244;2023-05-03T04:06:43;102959.41;;;5.43;52.39
10167;BME280;62970;53.130;8.244;2023-05-03T04:09:13;102955.09;;;5.44;52.39
10167;BME280;62970;53.130;8.244;2023-05-03T04:11:45;102955.97;;;5.44;52.64
10167;BME280;62970;53.130;8.244;2023-05-03T04:14:14;102962.13;;;5.48;52.37
10167;BME280;62970;53.130;8.244;2023-05-03T04:16:44;102959.53;;;5.48;52.44
10167;BME280;62970;53.130;8.244;2023-05-03T04:19:13;102963.06;;;5.50;52.40
10167;BME280;62970;53.130;8.244;2023-05-03T04:21:43;102960.56;;;5.53;52.54
10167;BME280;62970;53.130;8.244;2023-05-03T04:24:15;102963.25;;;5.56;52.68
10167;BME280;62970;53.130;8.244;2023-05-03T04:26:47;102964.28;;;5.61;52.64
10167;BME280;62970;53.130;8.244;2023-05-03T04:29:16;102970.44;;;5.64;52.84
10167;BME280;62970;53.130;8.244;2023-05-03T04:31:47;102969.72;;;5.70;52.71
10167;BME280;62970;53.130;8.244;2023-05-03T04:34:17;102968.13;;;5.74;52.57
10167;BME280;62970;53.130;8.244;2023-05-03T04:36:47;102970.94;;;5.81;52.99
10167;BME280;62970;53.130;8.244;2023-05-03T04:39:16;102966.78;;;5.86;52.79
10167;BME280;62970;53.130;8.244;2023-05-03T04:41:50;102973.03;;;5.93;52.81
10167;BME280;62970;53.130;8.244;2023-05-03T04:44:19;102971.50;;;5.99;52.90
10167;BME280;62970;53.130;8.244;2023-05-03T04:46:49;102969.97;;;6.06;52.70
10167;BME280;62970;53.130;8.244;2023-05-03T04:49:20;102969.22;;;6.10;52.60
10167;BME280;62970;53.130;8.244;2023-05-03T04:51:52;102979.78;;;6.16;52.95
10167;BME280;62970;53.130;8.244;2023-05-03T04:54:22;102986.06;;;6.24;52.58
10167;BME280;62970;53.130;8.244;2023-05-03T04:57:00;102980.22;;;6.31;52.50
10167;BME280;62970;53.130;8.244;2023-05-03T04:59:29;102989.16;;;6.43;52.46
10167;BME280;62970;53.130;8.244;2023-05-03T05:02:00;102987.66;;;6.51;53.01
10167;BME280;62970;53.130;8.244;2023-05-03T05:04:30;102993.13;;;6.60;52.47
10167;BME280;62970;53.130;8.244;2023-05-03T05:06:59;102994.25;;;6.70;52.83
10167;BME280;62970;53.130;8.244;2023-05-03T05:09:29;102997.09;;;6.79;52.87
10167;BME280;62970;53.130;8.244;2023-05-03T05:12:04;103006.81;;;6.87;52.46
10167;BME280;62970;53.130;8.244;2023-05-03T05:14:34;103012.25;;;6.96;52.52
10167;BME280;62970;53.130;8.244;2023-05-03T05:17:03;102997.81;;;7.06;52.48
10167;BME280;62970;53.130;8.244;2023-05-03T05:19:33;103003.19;;;7.14;52.40
10167;BME280;62970;53.130;8.244;2023-05-03T05:22:08;103006.91;;;7.22;52.41
10167;BME280;62970;53.130;8.244;2023-05-03T05:24:37;103014.00;;;7.29;52.25
10167;BME280;62970;53.130;8.244;2023-05-03T05:27:11;103021.13;;;7.38;52.05
10167;BME280;62970;53.130;8.244;2023-05-03T05:29:40;103014.50;;;7.47;52.02
10167;BME280;62970;53.130;8.244;2023-05-03T05:32:11;103013.84;;;7.56;51.90
10167;BME280;62970;53.130;8.244;2023-05-03T05:34:41;103018.41;;;7.66;51.84
10167;BME280;62970;53.130;8.244;2023-05-03T05:37:22;103020.34;;;7.75;51.13
10167;BME280;62970;53.130;8.244;2023-05-03T05:39:54;103021.41;;;7.83;51.31
10167;BME280;62970;53.130;8.244;2023-05-03T05:42:27;103031.97;;;7.90;51.47
10167;BME280;62970;53.130;8.244;2023-05-03T05:45:00;103038.22;;;7.99;51.02
10167;BME280;62970;53.130;8.244;2023-05-03T05:47:32;103037.47;;;8.04;50.41
10167;BME280;62970;53.130;8.244;2023-05-03T05:50:16;103041.09;;;8.11;50.25
10167;BME280;62970;53.130;8.244;2023-05-03T05:52:48;103036.06;;;8.18;50.69
10167;BME280;62970;53.130;8.244;2023-05-03T05:55:20;103042.28;;;8.25;50.35
10167;BME280;62970;53.130;8.244;2023-05-03T05:57:56;103040.66;;;8.30;50.11
10167;BME280;62970;53.130;8.244;2023-05-03T06:00:27;103045.97;;;8.36;49.40
10167;BME280;62970;53.130;8.244;2023-05-03T06:03:05;103039.16;;;8.41;49.41
10167;BME280;62970;53.130;8.244;2023-05-03T06:05:41;103042.66;;;8.43;49.23
10167;BME280;62970;53.130;8.244;2023-05-03T06:08:13;103042.72;;;8.46;48.96
10167;BME280;62970;53.130;8.244;2023-05-03T06:10:44;103043.69;;;8.51;48.76
10167;BME280;62970;53.130;8.244;2023-05-03T06:13:33;103049.88;;;8.56;48.75
10167;BME280;62970;53.130;8.244;2023-05-03T06:16:11;103044.75;;;8.61;48.78
10167;BME280;62970;53.130;8.244;2023-05-03T06:18:43;103040.53;;;8.66;48.89
10167;BME280;62970;53.130;8.244;2023-05-03T06:21:17;103049.34;;;8.73;48.75
10167;BME280;62970;53.130;8.244;2023-05-03T06:23:56;103044.28;;;8.79;48.26
10167;BME280;62970;53.130;8.244;2023-05-03T06:26:29;103044.38;;;8.83;48.34
10167;BME280;62970;53.130;8.244;2023-05-03T06:29:03;103045.34;;;8.88;48.05
10167;BME280;62970;53.130;8.244;2023-05-03T06:34:18;103048.09;;;8.98;47.26
10167;BME280;62970;53.130;8.244;2023-05-03T06:36:48;103058.56;;;9.01;47.18
10167;BME280;62970;53.130;8.244;2023-05-03T06:39:21;103061.22;;;9.02;46.93
10167;BME280;62970;53.130;8.244;2023-05-03T06:41:50;103061.25;;;9.04;47.18
10167;BME280;62970;53.130;8.244;2023-05-03T06:44:22;103058.66;;;9.05;47.14
10167;BME280;62970;53.130;8.244;2023-05-03T06:46:51;103059.63;;;9.10;47.02
10167;BME280;62970;53.130;8.244;2023-05-03T06:49:21;103061.44;;;9.14;46.68
10167;BME280;62970;53.130;8.244;2023-05-03T06:51:51;103052.84;;;9.18;46.65
10167;BME280;62970;53.130;8.244;2023-05-03T06:54:20;103056.41;;;9.23;46.58
10167;BME280;62970;53.130;8.244;2023-05-03T06:56:49;103054.81;;;9.32;46.50
10167;BME280;62970;53.130;8.244;2023-05-03T06:59:21;103047.97;;;9.38;46.00
10167;BME280;62970;53.130;8.244;2023-05-03T07:01:51;103054.16;;;9.45;46.34
10167;BME280;62970;53.130;8.244;2023-05-03T07:04:21;103045.66;;;9.55;45.93
10167;BME280;62970;53.130;8.244;2023-05-03T07:06:50;103049.28;;;9.65;46.13
10167;BME280;62970;53.130;8.244;2023-05-03T07:09:19;103043.31;;;9.72;45.93
10167;BME280;62970;53.130;8.244;2023-05-03T07:11:50;103043.44;;;9.79;45.61
10167;BME280;62970;53.130;8.244;2023-05-03T07:14:22;103050.50;;;9.86;45.80
10167;BME280;62970;53.130;8.244;2023-05-03T07:16:52;103050.59;;;9.94;45.74
10167;BME280;62970;53.130;8.244;2023-05-03T07:19:21;103054.22;;;10.01;45.42
10167;BME280;62970;53.130;8.244;2023-05-03T07:21:50;103052.59;;;10.09;45.09
10167;BME280;62970;53.130;8.244;2023-05-03T07:24:22;103050.16;;;10.18;45.16
10167;BME280;62970;53.130;8.244;2023-05-03T07:26:53;103059.81;;;10.27;44.75
10167;BME280;62970;53.130;8.244;2023-05-03T07:29:25;103059.91;;;10.33;45.00
10167;BME280;62970;53.130;8.244;2023-05-03T07:31:55;103060.81;;;10.35;43.81
10167;BME280;62970;53.130;8.244;2023-05-03T07:34:25;103061.56;;;10.28;43.90
10167;BME280;62970;53.130;8.244;2023-05-03T07:36:55;103058.09;;;10.27;44.06
10167;BME280;62970;53.130;8.244;2023-05-03T07:39:24;103056.44;;;10.32;44.55
10167;BME280;62970;53.130;8.244;2023-05-03T07:41:53;103058.28;;;10.42;44.17
10167;BME280;62970;53.130;8.244;2023-05-03T07:44:25;103062.81;;;10.56;44.32
10167;BME280;62970;53.130;8.244;2023-05-03T07:46:55;103061.22;;;10.67;43.66
10167;BME280;62970;53.130;8.244;2023-05-03T07:49:24;103065.56;;;10.68;43.36
10167;BME280;62970;53.130;8.244;2023-05-03T07:51:53;103065.50;;;10.63;42.93
10167;BME280;62970;53.130;8.244;2023-05-03T07:54:23;103070.66;;;10.57;43.17
10167;BME280;62970;53.130;8.244;2023-05-03T07:56:52;103068.81;;;10.50;43.15
10167;BME280;62970;53.130;8.244;2023-05-03T07:59:21;103073.09;;;10.43;42.93
10167;BME280;62970;53.130;8.244;2023-05-03T08:01:54;103069.50;;;10.35;43.15
10167;BME280;62970;53.130;8.244;2023-05-03T08:04:23;103070.34;;;10.34;43.41
10167;BME280;62970;53.130;8.244;2023-05-03T08:06:52;103057.38;;;10.37;43.33
10167;BME280;62970;53.130;8.244;2023-05-03T08:09:22;103068.72;;;10.41;43.06
10167;BME280;62970;53.130;8.244;2023-05-03T08:11:52;103060.91;;;10.42;43.41
10167;BME280;62970;53.130;8.244;2023-05-03T08:17:11;103058.22;;;10.36;43.22
10167;BME280;62970;53.130;8.244;2023-05-03T08:19:40;103054.66;;;10.30;42.83
10167;BME280;62970;53.130;8.244;2023-05-03T08:22:10;103054.56;;;10.22;43.19
10167;BME280;62970;53.130;8.244;2023-05-03T08:24:41;103061.44;;;10.17;42.93
10167;BME280;62970;53.130;8.244;2023-05-03T08:27:10;103065.78;;;10.16;43.32
10167;BME280;62970;53.130;8.244;2023-05-03T08:29:40;103064.91;;;10.17;43.14
10167;BME280;62970;53.130;8.244;2023-05-03T08:32:15;103064.84;;;10.16;42.75
10167;BME280;62970;53.130;8.244;2023-05-03T12:15:43;102989.53;;;12.57;40.25
10167;BME280;62970;53.130;8.244;2023-05-03T12:18:13;102995.59;;;12.55;39.73
10167;BME280;62970;53.130;8.244;2023-05-03T12:20:43;102996.47;;;12.54;39.77
10167;BME280;62970;53.130;8.244;2023-05-03T12:23:12;102993.84;;;12.57;39.00
10167;BME280;62970;53.130;8.244;2023-05-03T12:25:42;102986.88;;;12.56;38.87
10167;BME280;62970;53.130;8.244;2023-05-03T12:28:12;102987.75;;;12.55;38.95
10167;BME280;62970;53.130;8.244;2023-05-03T12:30:45;102986.00;;;12.52;38.93
10167;BME280;62970;53.130;8.244;2023-05-03T12:33:15;102979.88;;;12.50;39.38
10167;BME280;62970;53.130;8.244;2023-05-03T12:35:46;102978.13;;;12.51;38.65
10167;BME280;62970;53.130;8.244;2023-05-03T12:38:15;102971.13;;;12.43;39.07
10167;BME280;62970;53.130;8.244;2023-05-03T12:40:44;102972.00;;;12.38;38.97
10167;BME280;62970;53.130;8.244;2023-05-03T12:43:14;102974.59;;;12.33;39.14
10167;BME280;62970;53.130;8.244;2023-05-03T12:45:46;102970.22;;;12.31;38.33
10167;BME280;62970;53.130;8.244;2023-05-03T12:48:15;102967.59;;;12.28;38.83
10167;BME280;62970;53.130;8.244;2023-05-03T12:50:45;102972.81;;;12.23;38.56
10167;BME280;62970;53.130;8.244;2023-05-03T12:53:14;102963.22;;;12.22;38.89
10167;BME280;62970;53.130;8.244;2023-05-03T12:55:43;102961.50;;;12.29;39.06
10167;BME280;62970;53.130;8.244;2023-05-03T12:58:13;102964.13;;;12.35;38.76
10167;BME280;62970;53.130;8.244;2023-05-03T13:00:46;102962.41;;;12.38;38.58
10167;BME280;62970;53.130;8.244;2023-05-03T13:03:16;102959.78;;;12.40;38.38
10167;BME280;62970;53.130;8.244;2023-05-03T13:05:46;102950.19;;;12.42;38.44
10167;BME280;62970;53.130;8.244;2023-05-03T13:08:15;102951.97;;;12.48;38.38
10167;BME280;62970;53.130;8.244;2023-05-03T13:10:44;102937.16;;;12.54;37.95
10167;BME280;62970;53.130;8.244;2023-05-03T13:13:14;102946.81;;;12.61;38.32
10167;BME280;62970;53.130;8.244;2023-05-03T13:15:46;102937.22;;;12.63;38.12
10167;BME280;62970;53.130;8.244;2023-05-03T13:18:18;102938.97;;;12.63;38.23
10167;BME280;62970;53.130;8.244;2023-05-03T13:20:48;102931.13;;;12.63;38.78
10167;BME280;62970;53.130;8.244;2023-05-03T13:23:17;102935.50;;;12.65;38.06
10167;BME280;62970;53.130;8.244;2023-05-03T13:25:47;102931.13;;;12.67;38.09
10167;BME280;62970;53.130;8.244;2023-05-03T13:28:19;102935.50;;;12.71;37.98
10167;BME280;62970;53.130;8.244;2023-05-03T13:30:52;102924.16;;;12.71;37.86
10167;BME280;62970;53.130;8.244;2023-05-03T13:33:22;102929.41;;;12.71;37.91
10167;BME280;62970;53.130;8.244;2023-05-03T13:35:51;102916.31;;;12.71;37.89
10167;BME280;62970;53.130;8.244;2023-05-03T13:38:20;102920.66;;;12.72;38.05
10167;BME280;62970;53.130;8.244;2023-05-03T13:40:49;102907.59;;;12.73;37.86
10167;BME280;62970;53.130;8.244;2023-05-03T13:43:20;102897.13;;;12.75;37.93
10167;BME280;62970;53.130;8.244;2023-05-03T13:45:59;102911.06;;;12.79;38.45
10167;BME280;62970;53.130;8.244;2023-05-03T13:48:31;102904.09;;;12.81;38.07
10167;BME280;62970;53.130;8.244;2023-05-03T13:51:07;102902.34;;;12.73;37.67
10167;BME280;62970;53.130;8.244;2023-05-03T13:53:36;102905.81;;;12.65;37.89
10167;BME280;62970;53.130;8.244;2023-05-03T13:56:07;102901.38;;;12.55;38.25
10167;BME280;62970;53.130;8.244;2023-05-03T13:58:36;102900.50;;;12.51;38.25
10167;BME280;62970;53.130;8.244;2023-05-03T14:01:08;102898.75;;;12.49;38.56
10167;BME280;62970;53.130;8.244;2023-05-03T14:03:38;102893.53;;;12.49;38.79
10167;BME280;62970;53.130;8.244;2023-05-03T14:06:09;102890.91;;;12.50;38.65
10167;BME280;62970;53.130;8.244;2023-05-03T14:08:38;102893.53;;;12.55;38.78
10167;BME280;62970;53.130;8.244;2023-05-03T14:11:12;102887.47;;;12.59;38.62
10167;BME280;62970;53.130;8.244;2023-05-03T14:13:42;102891.84;;;12.60;38.71
10167;BME280;62970;53.130;8.244;2023-05-03T14:16:19;102881.31;;;12.57;38.47
10167;BME280;62970;53.130;8.244;2023-05-03T14:18:51;102881.31;;;12.57;38.61
10167;BME280;62970;53.130;8.244;2023-05-03T14:21:21;102875.25;;;12.59;38.54
10167;BME280;62970;53.130;8.244;2023-05-03T14:23:52;102870.94;;;12.61;38.93
10167;BME280;62970;53.130;8.244;2023-05-03T14:26:21;102865.69;;;12.64;38.71
10167;BME280;62970;53.130;8.244;2023-05-03T14:28:51;102869.19;;;12.65;38.24
10167;BME280;62970;53.130;8.244;2023-05-03T14:31:23;102865.69;;;12.64;38.42
10167;BME280;62970;53.130;8.244;2023-05-03T14:33:53;102867.44;;;12.62;38.48
10167;BME280;62970;53.130;8.244;2023-05-03T14:36:22;102861.25;;;12.54;38.18
10167;BME280;62970;53.130;8.244;2023-05-03T14:38:54;102862.13;;;12.47;38.14
10167;BME280;62970;53.130;8.244;2023-05-03T14:41:25;102856.00;;;12.43;38.36
10167;BME280;62970;53.130;8.244;2023-05-03T14:43:56;102855.13;;;12.40;38.39
10167;BME280;62970;53.130;8.244;2023-05-03T14:46:30;102856.88;;;12.39;38.68
10167;BME280;62970;53.130;8.244;2023-05-03T14:48:59;102856.88;;;12.42;38.39
10167;BME280;62970;53.130;8.244;2023-05-03T14:51:29;102859.50;;;12.39;38.33
10167;BME280;62970;53.130;8.244;2023-05-03T14:54:00;102848.16;;;12.33;38.34
10167;BME280;62970;53.130;8.244;2023-05-03T14:56:32;102844.66;;;12.28;38.68
10167;BME280;62970;53.130;8.244;2023-05-03T14:59:03;102851.63;;;12.26;39.06
10167;BME280;62970;53.130;8.244;2023-05-03T15:01:36;102847.25;;;12.25;38.66
10167;BME280;62970;53.130;8.244;2023-05-03T15:04:07;102835.94;;;12.26;38.72
10167;BME280;62970;53.130;8.244;2023-05-03T15:06:37;102844.66;;;12.29;38.86
10167;BME280;62970;53.130;8.244;2023-05-03T15:09:08;102834.19;;;12.29;39.04
10167;BME280;62970;53.130;8.244;2023-05-03T15:11:38;102835.06;;;12.30;38.92
10167;BME280;62970;53.130;8.244;2023-05-03T15:14:07;102841.16;;;12.26;39.38
10167;BME280;62970;53.130;8.244;2023-05-03T15:16:40;102843.78;;;12.24;39.57
10167;BME280;62970;53.130;8.244;2023-05-03T15:19:13;102840.28;;;12.22;39.28
10167;BME280;62970;53.130;8.244;2023-05-03T15:21:47;102841.16;;;12.18;38.84
10167;BME280;62970;53.130;8.244;2023-05-03T15:24:19;102842.03;;;12.17;39.13
10167;BME280;62970;53.130;8.244;2023-05-03T15:26:51;102851.59;;;12.15;39.15
10167;BME280;62970;53.130;8.244;2023-05-03T15:29:21;102849.84;;;12.11;39.24
10167;BME280;62970;53.130;8.244;2023-05-03T15:31:53;102842.00;;;12.08;39.25
10167;BME280;62970;53.130;8.244;2023-05-03T15:34:23;102845.47;;;12.08;39.47
10167;BME280;62970;53.130;8.244;2023-05-03T15:36:52;102843.75;;;12.07;39.49
10167;BME280;62970;53.130;8.244;2023-05-03T15:39:21;102836.75;;;12.06;39.58
10167;BME280;62970;53.130;8.244;2023-05-03T15:41:51;102833.28;;;12.06;39.55
10167;BME280;62970;53.130;8.244;2023-05-03T15:44:23;102834.16;;;12.05;39.41
10167;BME280;62970;53.130;8.244;2023-05-03T15:46:55;102834.13;;;12.03;39.37
10167;BME280;62970;53.130;8.244;2023-05-03T15:49:24;102834.13;;;12.00;39.87
10167;BME280;62970;53.130;8.244;2023-05-03T15:51:53;102843.72;;;11.97;39.72
10167;BME280;62970;53.130;8.244;2023-05-03T15:54:23;102834.97;;;11.89;39.62
10167;BME280;62970;53.130;8.244;2023-05-03T15:56:52;102838.44;;;11.83;39.95
10167;BME280;62970;53.130;8.244;2023-05-03T15:59:22;102831.44;;;11.77;39.66
10167;BME280;62970;53.130;8.244;2023-05-03T16:01:53;102834.03;;;11.74;39.91
10167;BME280;62970;53.130;8.244;2023-05-03T16:04:23;102826.19;;;11.71;40.05
10167;BME280;62970;53.130;8.244;2023-05-03T16:06:52;102826.16;;;11.65;39.68
10167;BME280;62970;53.130;8.244;2023-05-03T16:09:23;102819.19;;;11.61;39.83
10167;BME280;62970;53.130;8.244;2023-05-03T16:11:55;102829.63;;;11.58;40.27
10167;BME280;62970;53.130;8.244;2023-05-03T16:14:26;102823.50;;;11.55;40.05
10167;BME280;62970;53.130;8.244;2023-05-03T16:16:58;102825.22;;;11.51;40.35
10167;BME280;62970;53.130;8.244;2023-05-03T16:19:28;102822.63;;;11.50;40.14
10167;BME280;62970;53.130;8.244;2023-05-03T16:21:58;102822.63;;;11.51;40.09
10167;BME280;62970;53.130;8.244;2023-05-03T16:24:27;102820.88;;;11.48;40.43
10167;BME280;62970;53.130;8.244;2023-05-03T16:27:01;102824.34;;;11.44;40.21
10167;BME280;62970;53.130;8.244;2023-05-03T16:29:33;102832.97;;;11.37;40.15
10167;BME280;62970;53.130;8.244;2023-05-03T16:32:06;102822.47;;;11.30;40.57
10167;BME280;62970;53.130;8.244;2023-05-03T16:34:36;102827.69;;;11.27;40.49
10167;BME280;62970;53.130;8.244;2023-05-03T16:37:06;102822.44;;;11.22;41.14
10167;BME280;62970;53.130;8.244;2023-05-03T16:39:35;102828.53;;;11.21;40.57
10167;BME280;62970;53.130;8.244;2023-05-03T16:42:05;102824.16;;;11.17;40.96
10167;BME280;62970;53.130;8.244;2023-05-03T16:44:35;102818.88;;;11.11;40.88
10167;BME280;62970;53.130;8.244;2023-05-03T16:47:07;102824.94;;;11.05;41.12
10167;BME280;62970;53.130;8.244;2023-05-03T16:49:37;102819.69;;;11.01;41.11
10167;BME280;62970;53.130;8.244;2023-05-03T16:52:09;102822.25;;;10.95;41.21
10167;BME280;62970;53.130;8.244;2023-05-03T16:54:41;102814.38;;;10.89;41.52
10167;BME280;62970;53.130;8.244;2023-05-03T16:57:12;102809.13;;;10.84;41.83
10167;BME280;62970;53.130;8.244;2023-05-03T16:59:41;102807.34;;;10.77;41.64
10167;BME280;62970;53.130;8.244;2023-05-03T17:02:15;102809.88;;;10.69;41.78